Terminal Aerodrome Forecast
Issued by NWS

Home | Current Version | Previous Version | Text Only | Print | Product List | Glossary On
Versions: 1 2 3 4 5 6 7 8 9 10 11 12 13 14 15 16 17 18 19 20 21 22 23 24 25 26 27 28 29 30 31 32
083
FTUS41 KOKX 302328
TAFHPN
TAF
KHPN 302328Z 3100/3124 16006KT P6SM FEW060 BKN120
     FM310200 14004KT P6SM VCSH BKN050
     FM310800 11005KT 5SM -RAPL OVC015
     FM311400 09010G16KT 2SM -RA OVC006
     FM311800 09013G21KT 2SM RA OVC004
      AMD NOT SKED=

USA.gov is the U.S. government's official web portal to all federal, state and local government web resources and services.